ěÝzenÝ letovÚho provozu ╚eskÚ republiky
Letiste: LKKB Aktualizace: 21.09.2021 05:29:27  UTC
 METAR LKKB 21.09. 05:30 ...
METAR LKKB 210530Z 32004KT CAVOK 10/08 Q1026 NOSIG RMK BLU BLU=
 TAF LKKB 20.09. 23:00 ...
TAF LKKB 202300Z 2100/2200 34004KT CAVOK      PROB30 TEMPO 2100/2107 5000 BR SCT015 BKN030      TEMPO 2100/2110 VRB02KT      TEMPO 2108/2114 BKN040=